EICN weather

Coonagh Aerodrome
Limerick, County Limerick, Ireland

Public forecast

Using degrees Celsius for public forecast. Weather courtesy of forecast.io.

Closest aviation weather report (METAR) to Coonagh Aerodrome

Closest report is Shannon Airport, 9.1 nm (16.8 km) WNW. Retrieved 2020/07/16 13:30 UTC (8 minutes ago):

EINN 161330Z 22010KT 9999 FEW020 SCT040 19/15 Q1023 NOSIG

Closest aviation forecast (TAF) to Coonagh Aerodrome

Closest forecast is Shannon Airport, 9.1 nm (16.8 km) WNW. Retrieved 2020/07/16 12:11 UTC (1 hour ago):

TAF EINN 161100Z 1612/1712 25011KT 9999 SCT014 BKN025 PROB40 TEMPO 1612/1619 BKN014 TEMPO 1619/1622 5000 -DZ BKN008 BECMG 1622/1624 22010KT 5000 -DZ SCT004 BKN008 PROB30 TEMPO 1700/1703 3000 BKN004 TEMPO 1703/1712 3000 -RADZ BKN004 PROB40 TEMPO 1704/1709 1200 BR BKN002